createdAt,value
2018-09-15T00:00:42.355Z,74.80
2018-09-15T00:03:10.733Z,74.76
2018-09-15T00:05:39.176Z,74.71
2018-09-15T00:08:07.545Z,74.07
2018-09-15T00:10:35.922Z,74.43
2018-09-15T00:13:04.327Z,74.79
2018-09-15T00:15:32.718Z,74.88
2018-09-15T00:18:02.586Z,74.28
2018-09-15T00:20:31.014Z,74.37
2018-09-15T00:22:59.420Z,73.81
2018-09-15T00:25:27.838Z,74.37
2018-09-15T00:27:56.215Z,74.35
2018-09-15T00:30:24.699Z,74.02
2018-09-15T00:32:53.918Z,73.37
2018-09-15T00:35:22.294Z,73.11
2018-09-15T00:37:50.862Z,73.33
2018-09-15T00:40:19.271Z,73.76
2018-09-15T00:42:47.858Z,73.70
2018-09-15T00:45:16.279Z,73.24
2018-09-15T00:47:44.693Z,73.78
2018-09-15T00:50:13.096Z,73.42
2018-09-15T00:52:41.653Z,73.92
2018-09-15T00:55:10.106Z,73.88
2018-09-15T00:57:38.513Z,74.15
2018-09-15T01:00:07.847Z,74.87
2018-09-15T01:02:36.541Z,74.85
2018-09-15T01:05:05.324Z,74.60
2018-09-15T01:07:33.772Z,74.63
2018-09-15T01:10:02.291Z,74.33
2018-09-15T01:12:30.701Z,73.96
2018-09-15T01:14:59.086Z,74.11
2018-09-15T01:17:27.525Z,75.03
2018-09-15T01:19:55.957Z,75.36
2018-09-15T01:22:24.319Z,75.16
2018-09-15T01:24:52.698Z,74.83
2018-09-15T01:27:21.125Z,75.49
2018-09-15T01:29:49.518Z,75.77
2018-09-15T01:32:17.989Z,75.93
2018-09-15T01:34:46.428Z,75.91
2018-09-15T01:37:14.830Z,76.14
2018-09-15T01:39:43.221Z,76.10
2018-09-15T01:42:11.641Z,76.50
2018-09-15T01:44:40.017Z,76.86
2018-09-15T01:47:08.471Z,77.89
2018-09-15T01:49:36.882Z,77.44
2018-09-15T01:52:05.345Z,78.22
2018-09-15T01:54:33.741Z,78.39
2018-09-15T01:57:02.154Z,79.05
2018-09-15T01:59:30.557Z,79.20
2018-09-15T02:01:59.037Z,79.78
2018-09-15T02:04:27.418Z,80.41
2018-09-15T02:06:55.857Z,80.61
2018-09-15T02:09:24.217Z,80.52
2018-09-15T02:11:52.657Z,80.39
2018-09-15T02:14:21.069Z,80.66
2018-09-15T02:16:49.478Z,82.10
2018-09-15T02:19:17.847Z,81.92
2018-09-15T02:21:46.237Z,82.11
2018-09-15T02:24:14.661Z,82.87
2018-09-15T02:26:43.069Z,82.69
2018-09-15T02:29:11.458Z,83.05
2018-09-15T02:31:39.843Z,82.83
2018-09-15T02:34:08.350Z,82.91
2018-09-15T02:36:36.758Z,83.07
2018-09-15T02:39:07.509Z,83.27
2018-09-15T02:41:35.946Z,84.11
2018-09-15T02:44:04.358Z,84.32
2018-09-15T02:46:32.741Z,84.02
2018-09-15T02:49:01.153Z,84.28
2018-09-15T02:51:29.526Z,84.53
2018-09-15T02:53:57.910Z,85.63
2018-09-15T02:56:26.294Z,85.81
2018-09-15T02:58:54.700Z,85.89
2018-09-15T03:01:23.076Z,86.66
2018-09-15T03:03:51.469Z,86.55
2018-09-15T03:06:19.839Z,86.61
2018-09-15T03:08:48.214Z,86.61
2018-09-15T03:11:16.562Z,86.97
2018-09-15T03:13:44.973Z,87.66
2018-09-15T03:16:13.342Z,87.19
2018-09-15T03:18:41.722Z,87.88
2018-09-15T03:21:10.102Z,88.36
2018-09-15T03:23:38.481Z,89.14
2018-09-15T03:26:06.913Z,89.24
2018-09-15T03:28:35.298Z,88.74
2018-09-15T03:31:03.677Z,88.80
2018-09-15T03:33:32.045Z,88.93
2018-09-15T03:36:00.406Z,89.21
2018-09-15T03:38:28.817Z,89.82
2018-09-15T03:40:57.203Z,90.50
2018-09-15T03:43:25.680Z,90.39
2018-09-15T03:45:54.061Z,90.65
2018-09-15T03:48:22.525Z,90.97
2018-09-15T03:50:50.873Z,90.64
2018-09-15T03:53:19.258Z,90.61
2018-09-15T03:55:47.625Z,90.80
2018-09-15T03:58:16.005Z,89.86
2018-09-15T04:00:44.413Z,90.16
2018-09-15T04:03:12.798Z,90.40
2018-09-15T04:05:41.265Z,89.83
2018-09-15T04:08:09.661Z,90.00
2018-09-15T04:10:38.053Z,90.38
2018-09-15T04:13:06.430Z,90.40
2018-09-15T04:15:34.841Z,90.19
2018-09-15T04:18:03.219Z,90.54
2018-09-15T04:20:31.572Z,90.46
2018-09-15T04:22:59.941Z,90.90
2018-09-15T04:25:28.309Z,91.21
2018-09-15T04:27:56.770Z,91.13
2018-09-15T04:30:25.178Z,91.00
2018-09-15T04:32:53.597Z,91.51
2018-09-15T04:35:21.977Z,91.30
2018-09-15T04:37:50.344Z,91.77
2018-09-15T04:40:18.728Z,92.37
2018-09-15T04:42:47.081Z,91.84
2018-09-15T04:45:15.461Z,92.02
2018-09-15T04:47:43.822Z,93.30
2018-09-15T04:50:12.227Z,93.23
2018-09-15T04:52:40.677Z,94.05
2018-09-15T04:55:09.087Z,94.11
2018-09-15T04:57:37.466Z,93.84
2018-09-15T05:00:05.916Z,95.10
2018-09-15T05:02:34.401Z,94.62
2018-09-15T05:05:02.858Z,94.66
2018-09-15T05:07:31.298Z,94.89
2018-09-15T05:09:59.714Z,94.69
2018-09-15T05:12:28.287Z,94.83
2018-09-15T05:14:56.668Z,95.15
2018-09-15T05:17:25.049Z,96.11
2018-09-15T05:19:53.441Z,95.72
2018-09-15T05:22:21.905Z,96.53
2018-09-15T05:24:50.340Z,96.69
2018-09-15T05:27:18.724Z,96.17
2018-09-15T05:29:47.124Z,96.71
2018-09-15T05:32:15.523Z,96.87
2018-09-15T05:34:43.929Z,96.37
2018-09-15T05:37:12.335Z,96.62
2018-09-15T05:39:40.745Z,96.57
2018-09-15T05:42:09.123Z,96.35
2018-09-15T05:44:37.550Z,96.86
2018-09-15T05:47:06.267Z,96.89
2018-09-15T05:49:34.701Z,96.50
2018-09-15T05:52:03.086Z,96.88
2018-09-15T05:54:31.490Z,96.84
2018-09-15T05:56:59.865Z,96.66
2018-09-15T05:59:28.257Z,96.35
2018-09-15T06:01:56.665Z,96.11
2018-09-15T06:04:25.100Z,96.28
2018-09-15T06:06:54.182Z,95.57
2018-09-15T06:09:22.574Z,95.21
2018-09-15T06:11:50.964Z,95.01
2018-09-15T06:14:19.346Z,95.14
2018-09-15T06:16:47.743Z,93.31
2018-09-15T06:19:16.157Z,93.08
2018-09-15T06:21:44.563Z,92.52
2018-09-15T06:24:13.077Z,92.67
2018-09-15T06:26:41.604Z,92.03
2018-09-15T06:29:10.053Z,91.35
2018-09-15T06:31:38.506Z,91.28
2018-09-15T06:34:06.960Z,91.23
2018-09-15T06:36:35.429Z,90.38
2018-09-15T06:39:04.665Z,90.27
2018-09-15T06:41:33.092Z,90.36
2018-09-15T06:44:01.465Z,90.05
2018-09-15T06:46:29.877Z,89.25
2018-09-15T06:48:58.265Z,89.13
2018-09-15T06:51:26.733Z,89.15
2018-09-15T06:53:55.117Z,88.26
2018-09-15T06:56:23.529Z,88.44
2018-09-15T06:58:51.941Z,87.68
2018-09-15T07:01:20.325Z,86.84
2018-09-15T07:03:48.723Z,86.71
2018-09-15T07:06:17.190Z,85.67
2018-09-15T07:08:45.550Z,85.14
2018-09-15T07:11:13.946Z,84.32
2018-09-15T07:13:42.309Z,84.73
2018-09-15T07:16:10.700Z,83.93
2018-09-15T07:18:39.130Z,83.18
2018-09-15T07:21:07.722Z,83.36
2018-09-15T07:23:36.074Z,83.18
2018-09-15T07:26:04.513Z,82.66
2018-09-15T07:28:32.882Z,81.96
2018-09-15T07:31:01.328Z,81.39
2018-09-15T07:33:29.706Z,81.18
2018-09-15T07:35:58.095Z,80.59
2018-09-15T07:38:26.485Z,80.95
2018-09-15T07:40:54.849Z,80.36
2018-09-15T07:43:23.224Z,80.17
2018-09-15T07:45:51.697Z,80.62
2018-09-15T07:48:20.079Z,79.27
2018-09-15T07:50:48.461Z,79.60
2018-09-15T07:53:16.817Z,79.17
2018-09-15T07:55:45.248Z,78.51
2018-09-15T07:58:14.640Z,77.84
2018-09-15T08:00:43.064Z,77.58
2018-09-15T08:03:11.412Z,76.49
2018-09-15T08:05:39.914Z,77.35
2018-09-15T08:08:08.287Z,76.82
2018-09-15T08:10:36.671Z,77.88
2018-09-15T08:13:05.050Z,77.50
2018-09-15T08:15:33.835Z,76.92
2018-09-15T08:18:02.216Z,75.73
2018-09-15T08:20:30.640Z,76.92
2018-09-15T08:22:59.035Z,77.03
2018-09-15T08:25:27.457Z,75.75
2018-09-15T08:27:55.852Z,76.17
2018-09-15T08:30:24.369Z,75.22
2018-09-15T08:32:52.769Z,74.62
2018-09-15T08:35:21.176Z,73.82
2018-09-15T08:37:49.594Z,74.02
2018-09-15T08:40:17.998Z,75.43
2018-09-15T08:42:46.825Z,75.54
2018-09-15T08:45:15.269Z,76.45
2018-09-15T08:47:43.682Z,74.95
2018-09-15T08:50:12.094Z,73.50
2018-09-15T08:52:40.490Z,72.70
2018-09-15T08:55:08.865Z,70.79
2018-09-15T08:57:37.289Z,71.24
2018-09-15T09:00:05.737Z,71.58
2018-09-15T09:02:34.138Z,72.23
2018-09-15T09:05:02.521Z,70.83
2018-09-15T09:07:30.929Z,71.34
2018-09-15T09:09:59.455Z,70.87
2018-09-15T09:12:27.869Z,71.48
2018-09-15T09:14:56.233Z,70.63
2018-09-15T09:17:24.618Z,70.70
2018-09-15T09:19:53.122Z,70.93
2018-09-15T09:22:21.553Z,69.40
2018-09-15T09:24:50.025Z,69.41
2018-09-15T09:27:18.421Z,67.48
2018-09-15T09:29:46.778Z,69.01
2018-09-15T09:32:15.263Z,68.82
2018-09-15T09:34:43.718Z,68.49
2018-09-15T09:37:12.138Z,67.97
2018-09-15T09:39:43.421Z,68.43
2018-09-15T09:42:11.913Z,69.79
2018-09-15T09:44:40.362Z,69.17
2018-09-15T09:47:09.973Z,69.49
2018-09-15T09:49:38.454Z,67.84
2018-09-15T09:52:06.925Z,66.64
2018-09-15T09:54:35.365Z,65.12
2018-09-15T09:57:03.841Z,63.97
2018-09-15T09:59:32.240Z,63.65
2018-09-15T10:02:03.068Z,62.88
2018-09-15T10:04:32.251Z,64.28
2018-09-15T10:07:00.748Z,64.07
2018-09-15T10:09:29.148Z,63.48
2018-09-15T10:11:57.568Z,65.46
2018-09-15T10:14:25.985Z,65.72
2018-09-15T10:16:54.361Z,63.55
2018-09-15T10:19:22.773Z,63.38
2018-09-15T10:21:51.203Z,63.81
2018-09-15T10:24:19.877Z,63.78
2018-09-15T10:26:48.346Z,63.49
2018-09-15T10:29:16.721Z,64.17
2018-09-15T10:31:45.159Z,64.95
2018-09-15T10:34:14.090Z,64.67
2018-09-15T10:36:42.671Z,65.24
2018-09-15T10:39:12.173Z,64.90
2018-09-15T10:48:41.375Z,62.62
2018-09-15T10:51:09.765Z,61.52
2018-09-15T10:53:38.147Z,61.23
2018-09-15T10:56:06.628Z,61.13
2018-09-15T10:58:35.095Z,60.98
2018-09-15T11:01:03.581Z,60.66
2018-09-15T11:03:31.983Z,60.23
2018-09-15T11:06:00.536Z,60.42
2018-09-15T11:08:28.932Z,61.32
2018-09-15T11:10:57.333Z,60.70
2018-09-15T11:13:25.915Z,58.62
2018-09-15T11:15:54.227Z,59.58
2018-09-15T11:18:22.684Z,60.02
2018-09-15T11:20:51.127Z,59.85
2018-09-15T11:23:19.603Z,58.29
2018-09-15T11:25:48.018Z,55.93
2018-09-15T11:28:16.484Z,56.14
2018-09-15T11:30:45.046Z,58.02
2018-09-15T11:33:13.454Z,58.73
2018-09-15T11:35:41.879Z,61.16
2018-09-15T11:38:10.292Z,63.03
2018-09-15T11:40:38.725Z,62.95
2018-09-15T11:43:07.130Z,63.06
2018-09-15T11:45:35.584Z,62.36
2018-09-15T11:48:04.174Z,59.35
2018-09-15T11:50:32.619Z,58.26
2018-09-15T11:53:01.115Z,57.33
2018-09-15T11:55:29.567Z,57.40
2018-09-15T11:57:58.022Z,57.31
2018-09-15T12:00:28.399Z,56.44
2018-09-15T12:02:56.835Z,55.76
2018-09-15T12:05:25.270Z,52.93
2018-09-15T12:07:53.825Z,48.98
2018-09-15T12:10:22.225Z,47.11
2018-09-15T12:12:50.770Z,49.38
2018-09-15T12:15:19.522Z,50.41
2018-09-15T12:17:48.025Z,50.72
2018-09-15T12:20:16.446Z,50.16
2018-09-15T12:22:44.858Z,46.74
2018-09-15T12:25:13.263Z,47.62
2018-09-15T12:27:41.677Z,47.72
2018-09-15T12:30:10.079Z,49.18
2018-09-15T12:32:38.481Z,49.89
2018-09-15T12:35:06.971Z,50.56
2018-09-15T12:37:35.366Z,51.46
2018-09-15T12:40:03.906Z,52.65
2018-09-15T12:42:32.295Z,52.90
2018-09-15T12:45:00.897Z,52.23
2018-09-15T12:47:29.217Z,50.27
2018-09-15T12:50:00.982Z,48.94
2018-09-15T12:52:29.422Z,47.29
2018-09-15T12:54:57.854Z,47.56
2018-09-15T12:57:26.255Z,49.38
2018-09-15T12:59:54.686Z,49.34
2018-09-15T13:02:23.103Z,49.38
2018-09-15T13:04:51.588Z,50.13
2018-09-15T13:07:20.056Z,51.01
2018-09-15T13:09:48.473Z,51.15
2018-09-15T13:12:16.954Z,52.18
2018-09-15T13:14:45.409Z,51.75
2018-09-15T13:17:13.814Z,51.53
2018-09-15T13:19:42.266Z,51.32
2018-09-15T13:22:10.745Z,49.75
2018-09-15T13:24:39.179Z,49.35
2018-09-15T13:27:08.141Z,48.32
2018-09-15T13:29:36.636Z,49.57
2018-09-15T13:32:05.223Z,50.49
2018-09-15T13:34:34.074Z,50.51
2018-09-15T13:37:02.709Z,48.73
2018-09-15T13:39:31.121Z,49.19
2018-09-15T13:41:59.503Z,49.70
2018-09-15T13:44:27.906Z,49.05
2018-09-15T13:46:57.349Z,50.48
2018-09-15T13:49:25.738Z,48.63
2018-09-15T13:51:54.122Z,48.84
2018-09-15T13:54:22.559Z,49.82
2018-09-15T13:56:51.720Z,50.33
2018-09-15T13:59:20.095Z,48.88
2018-09-15T14:01:48.552Z,49.71
2018-09-15T14:04:16.988Z,49.02
2018-09-15T14:06:45.389Z,49.77
2018-09-15T14:09:13.816Z,50.59
2018-09-15T14:11:42.246Z,50.76
2018-09-15T14:14:10.625Z,50.04
2018-09-15T14:16:39.076Z,50.23
2018-09-15T14:19:07.499Z,48.93
2018-09-15T14:21:35.949Z,48.93
2018-09-15T14:24:04.503Z,49.88
2018-09-15T14:26:32.906Z,49.84
2018-09-15T14:29:01.302Z,48.66
2018-09-15T14:31:29.702Z,49.28
2018-09-15T14:33:58.124Z,48.60
2018-09-15T14:36:26.538Z,48.20
2018-09-15T14:38:54.965Z,48.67
2018-09-15T14:41:23.374Z,48.48
2018-09-15T14:43:51.783Z,49.28
2018-09-15T14:46:20.197Z,49.69
2018-09-15T14:48:48.729Z,50.35
2018-09-15T14:51:17.124Z,50.53
2018-09-15T14:53:45.522Z,49.69
2018-09-15T14:56:13.946Z,49.92
2018-09-15T14:58:42.323Z,49.75
2018-09-15T15:01:10.698Z,49.85
2018-09-15T15:03:40.867Z,49.93
2018-09-15T15:06:09.441Z,49.75
2018-09-15T15:08:37.810Z,50.18
2018-09-15T15:11:06.189Z,49.56
2018-09-15T15:13:34.681Z,49.46
2018-09-15T15:16:03.033Z,48.71
2018-09-15T15:18:31.507Z,48.50
2018-09-15T15:20:59.940Z,48.65
2018-09-15T15:23:28.434Z,48.51
2018-09-15T15:25:56.872Z,49.52
2018-09-15T15:28:25.451Z,49.41
2018-09-15T15:30:53.914Z,49.47
2018-09-15T15:33:22.315Z,50.56
2018-09-15T15:35:50.718Z,49.91
2018-09-15T15:38:19.129Z,49.75
2018-09-15T15:40:47.553Z,49.74
2018-09-15T15:43:16.080Z,50.01
2018-09-15T15:45:44.800Z,49.91
2018-09-15T15:48:13.187Z,49.75
2018-09-15T15:50:41.833Z,50.04
2018-09-15T15:53:10.242Z,50.01
2018-09-15T15:55:39.048Z,50.64
2018-09-15T15:58:07.500Z,51.09
2018-09-15T16:00:35.868Z,50.20
2018-09-15T16:03:04.261Z,50.68
2018-09-15T16:05:32.721Z,51.31
2018-09-15T16:08:01.151Z,51.54
2018-09-15T16:10:29.543Z,51.22
2018-09-15T16:12:57.954Z,51.40
2018-09-15T16:15:26.356Z,51.43
2018-09-15T16:17:54.742Z,51.67
2018-09-15T16:20:23.165Z,51.86
2018-09-15T16:22:51.601Z,51.84
2018-09-15T16:25:19.981Z,51.90
2018-09-15T16:27:49.004Z,52.48
2018-09-15T16:30:17.381Z,52.84
2018-09-15T16:32:45.862Z,53.49
2018-09-15T16:35:14.273Z,53.55
2018-09-15T16:37:43.018Z,54.00
2018-09-15T16:40:11.427Z,53.99
2018-09-15T16:42:39.907Z,54.07
2018-09-15T16:45:08.323Z,53.70
2018-09-15T16:47:36.809Z,54.11
2018-09-15T16:50:05.332Z,54.05
2018-09-15T16:52:33.761Z,54.39
2018-09-15T16:55:02.247Z,54.29
2018-09-15T16:57:30.753Z,55.38
2018-09-15T16:59:59.177Z,54.91
2018-09-15T17:02:27.928Z,55.74
2018-09-15T17:04:56.380Z,56.15
2018-09-15T17:07:25.841Z,57.22
2018-09-15T17:09:54.330Z,56.32
2018-09-15T17:12:22.790Z,56.75
2018-09-15T17:14:51.256Z,58.60
2018-09-15T17:17:19.718Z,57.72
2018-09-15T17:19:48.232Z,60.61
2018-09-15T17:22:16.702Z,62.00
2018-09-15T17:24:45.152Z,60.63
2018-09-15T17:27:13.629Z,61.21
2018-09-15T17:29:42.237Z,62.24
2018-09-15T17:32:10.985Z,63.47
2018-09-15T17:34:39.437Z,64.42
2018-09-15T17:37:08.045Z,64.97
2018-09-15T17:39:36.710Z,65.48
2018-09-15T17:42:05.183Z,65.27
2018-09-15T17:44:33.682Z,66.92
2018-09-15T17:47:02.136Z,66.70
2018-09-15T17:49:30.590Z,67.70
2018-09-15T17:51:59.026Z,67.65
2018-09-15T17:54:27.543Z,67.86
2018-09-15T17:56:55.975Z,68.00
2018-09-15T17:59:24.433Z,69.18
2018-09-15T18:01:52.893Z,69.50
2018-09-15T18:04:21.466Z,69.23
2018-09-15T18:06:50.014Z,69.71
2018-09-15T18:09:18.564Z,69.29
2018-09-15T18:11:48.086Z,69.70
2018-09-15T18:14:16.508Z,70.55
2018-09-15T18:16:44.907Z,70.78
2018-09-15T18:19:13.412Z,70.49
2018-09-15T18:21:41.909Z,70.78
2018-09-15T18:24:10.349Z,71.82
2018-09-15T18:26:38.901Z,72.26
2018-09-15T18:29:07.402Z,71.25
2018-09-15T18:31:35.918Z,72.05
2018-09-15T18:34:04.398Z,71.67
2018-09-15T18:36:32.850Z,71.67
2018-09-15T18:39:01.293Z,71.83
2018-09-15T18:41:30.727Z,72.32
2018-09-15T18:43:59.252Z,72.38
2018-09-15T18:46:27.715Z,72.42
2018-09-15T18:48:56.210Z,72.44
2018-09-15T18:51:24.705Z,72.17
2018-09-15T18:53:53.197Z,72.72
2018-09-15T18:56:21.761Z,72.33
2018-09-15T18:58:50.300Z,73.61
2018-09-15T19:08:18.762Z,73.89
2018-09-15T19:10:47.598Z,72.99
2018-09-15T19:13:16.149Z,73.10
2018-09-15T19:15:44.902Z,72.87
2018-09-15T19:18:13.758Z,73.37
2018-09-15T19:20:42.289Z,72.78
2018-09-15T19:23:11.484Z,73.75
2018-09-15T19:25:40.118Z,73.73
2018-09-15T19:28:09.082Z,72.69
2018-09-15T19:30:37.848Z,73.23
2018-09-15T19:33:06.374Z,74.05
2018-09-15T19:35:35.342Z,74.23
2018-09-15T19:38:03.805Z,74.06
2018-09-15T19:40:32.284Z,74.41
2018-09-15T19:43:00.882Z,75.06
2018-09-15T19:45:29.590Z,76.05
2018-09-15T19:47:58.315Z,76.55
2018-09-15T19:50:26.806Z,76.46
2018-09-15T19:52:55.290Z,76.24
2018-09-15T19:55:24.511Z,76.16
2018-09-15T19:57:53.231Z,76.47
2018-09-15T20:00:21.748Z,76.07
2018-09-15T20:02:50.235Z,76.38
2018-09-15T20:05:19.932Z,76.36
2018-09-15T20:07:48.439Z,76.57
2018-09-15T20:10:17.030Z,76.40
2018-09-15T20:12:45.606Z,76.35
2018-09-15T20:15:27.333Z,77.89
2018-09-15T20:17:54.713Z,78.49
2018-09-15T20:20:22.831Z,79.46
2018-09-15T20:22:52.843Z,79.16
2018-09-15T20:25:21.322Z,79.65
2018-09-15T20:27:49.883Z,79.33
2018-09-15T20:30:18.484Z,79.43
2018-09-15T20:32:47.058Z,79.13
2018-09-15T20:35:15.949Z,79.42
2018-09-15T20:37:44.509Z,79.70
2018-09-15T20:40:13.082Z,79.87
2018-09-15T20:42:41.543Z,80.32
2018-09-15T20:45:11.088Z,80.00
2018-09-15T20:47:39.770Z,80.53
2018-09-15T20:50:08.774Z,81.03
2018-09-15T20:52:37.301Z,80.92
2018-09-15T20:55:06.223Z,81.68
2018-09-15T20:57:35.012Z,82.06
2018-09-15T21:00:03.606Z,82.43
2018-09-15T21:02:32.082Z,81.05
2018-09-15T21:05:00.596Z,81.83
2018-09-15T21:07:29.120Z,81.44
2018-09-15T21:09:57.857Z,81.03
2018-09-15T21:12:26.302Z,80.59
2018-09-15T21:14:54.926Z,80.08
2018-09-15T21:17:23.652Z,80.47
2018-09-15T21:19:52.202Z,79.89
2018-09-15T21:22:20.629Z,80.57
2018-09-15T21:24:49.180Z,80.95
2018-09-15T21:27:17.656Z,82.00
2018-09-15T21:29:46.109Z,81.96
2018-09-15T21:32:14.560Z,81.85
2018-09-15T21:34:43.056Z,82.66
2018-09-15T21:37:11.605Z,83.59
2018-09-15T21:39:40.866Z,83.75
2018-09-15T21:42:09.408Z,84.13
2018-09-15T21:44:37.896Z,83.84
2018-09-15T21:47:06.620Z,83.36
2018-09-15T21:49:35.150Z,83.26
2018-09-15T21:52:03.793Z,83.18
2018-09-15T21:54:32.322Z,83.79
2018-09-15T21:57:00.789Z,83.94
2018-09-15T21:59:29.380Z,84.18
2018-09-15T22:01:58.042Z,83.09
2018-09-15T22:04:26.592Z,82.78
2018-09-15T22:06:55.182Z,82.98
2018-09-15T22:09:24.171Z,83.99
2018-09-15T22:11:53.107Z,85.34
2018-09-15T22:14:21.652Z,86.50
2018-09-15T22:16:50.190Z,86.10
2018-09-15T22:19:18.777Z,86.28
2018-09-15T22:21:47.227Z,86.59
2018-09-15T22:24:16.043Z,85.81
2018-09-15T22:26:44.590Z,86.46
2018-09-15T22:29:13.189Z,87.21
2018-09-15T22:31:48.456Z,87.61
2018-09-15T22:34:16.970Z,87.45
2018-09-15T22:36:45.403Z,87.44
2018-09-15T22:39:13.844Z,87.03
2018-09-15T22:41:42.237Z,87.05
2018-09-15T22:44:10.720Z,87.83
2018-09-15T22:46:39.138Z,87.29
2018-09-15T22:49:07.625Z,87.51
2018-09-15T22:51:36.169Z,88.08
2018-09-15T22:54:04.652Z,88.68
2018-09-15T22:56:33.082Z,88.86
2018-09-15T22:59:01.482Z,89.07
2018-09-15T23:01:29.877Z,89.42
2018-09-15T23:04:06.150Z,88.47
2018-09-15T23:06:34.866Z,88.99
2018-09-15T23:09:03.343Z,89.27
2018-09-15T23:11:31.785Z,89.19
2018-09-15T23:14:00.197Z,88.60
2018-09-15T23:16:28.617Z,88.93
2018-09-15T23:18:57.054Z,88.82
2018-09-15T23:21:25.425Z,88.95
2018-09-15T23:23:53.860Z,89.38
2018-09-15T23:26:22.314Z,89.83
2018-09-15T23:28:50.906Z,90.86
2018-09-15T23:31:19.961Z,90.36
2018-09-15T23:33:48.364Z,90.37
2018-09-15T23:36:16.785Z,90.76
2018-09-15T23:38:45.197Z,90.67
2018-09-15T23:41:13.685Z,91.57
2018-09-15T23:43:42.057Z,91.40
2018-09-15T23:46:10.965Z,91.28
2018-09-15T23:48:39.354Z,92.61
2018-09-15T23:51:07.769Z,92.93
2018-09-15T23:53:36.150Z,91.66
2018-09-15T23:56:04.578Z,92.59
2018-09-15T23:58:32.989Z,92.97
